Lamont, Washington
Current Conditions -  °F | °C
As of 12:58 AM on Thursday 23 Oct 2014 (Local Time) from KSKA Reporting Station
Overcast Overcast  
Wind Chill: 51°   Ceiling: 5500
Heat Index: 51°   Visibility: 10mi
Dew Point: 45°   Wind: 12mph
Humidity: 80%   Direction: 160°SSE
Pressure: 29.75"   Gusts: NA
Location:  47.2°N, 117.91°W
Report Text: KSKA 230758Z AUTO 16010KT 10SM OVC055 11/07 A2975 RMK AO2 SLP074 T01070074
Loading
Personal Weather Stations






























Interactive Weather Map
Tropical Storm Tracking
New forecast layout! Learn more

10-Day Weather Forecast

Advertisements
Track Severe Weather on mobile